sensor_id;sensor_type;location;lat;lon;timestamp;P1;durP1;ratioP1;P2;durP2;ratioP2
15194;SDS011;7698;42.478;23.756;2023-08-07T00:02:11;0.70;;;0.70;;
15194;SDS011;7698;42.478;23.756;2023-08-07T00:04:37;1.10;;;1.10;;
15194;SDS011;7698;42.478;23.756;2023-08-07T00:07:04;1.00;;;1.00;;
15194;SDS011;7698;42.478;23.756;2023-08-07T00:09:31;0.80;;;0.80;;
15194;SDS011;7698;42.478;23.756;2023-08-07T00:11:57;0.70;;;0.70;;
15194;SDS011;7698;42.478;23.756;2023-08-07T00:14:24;0.80;;;0.77;;
15194;SDS011;7698;42.478;23.756;2023-08-07T00:16:52;0.88;;;0.88;;
15194;SDS011;7698;42.478;23.756;2023-08-07T00:19:18;0.60;;;0.60;;
15194;SDS011;7698;42.478;23.756;2023-08-07T00:21:45;1.25;;;0.90;;
15194;SDS011;7698;42.478;23.756;2023-08-07T00:24:11;0.60;;;0.60;;
15194;SDS011;7698;42.478;23.756;2023-08-07T00:26:38;0.70;;;0.70;;
15194;SDS011;7698;42.478;23.756;2023-08-07T00:29:04;0.80;;;0.80;;
15194;SDS011;7698;42.478;23.756;2023-08-07T00:31:31;0.80;;;0.80;;
15194;SDS011;7698;42.478;23.756;2023-08-07T00:33:59;0.80;;;0.80;;
15194;SDS011;7698;42.478;23.756;2023-08-07T00:36:27;0.85;;;0.85;;
15194;SDS011;7698;42.478;23.756;2023-08-07T00:38:54;1.00;;;1.00;;
15194;SDS011;7698;42.478;23.756;2023-08-07T00:41:20;0.77;;;0.77;;
15194;SDS011;7698;42.478;23.756;2023-08-07T00:43:47;0.63;;;0.63;;
15194;SDS011;7698;42.478;23.756;2023-08-07T00:46:14;0.90;;;0.90;;
15194;SDS011;7698;42.478;23.756;2023-08-07T00:48:40;1.08;;;1.00;;
15194;SDS011;7698;42.478;23.756;2023-08-07T00:51:08;1.00;;;1.00;;
15194;SDS011;7698;42.478;23.756;2023-08-07T00:53:37;1.02;;;1.02;;
15194;SDS011;7698;42.478;23.756;2023-08-07T00:56:04;1.02;;;1.02;;
15194;SDS011;7698;42.478;23.756;2023-08-07T00:58:30;1.15;;;1.05;;
15194;SDS011;7698;42.478;23.756;2023-08-07T01:00:57;1.10;;;1.08;;
15194;SDS011;7698;42.478;23.756;2023-08-07T01:03:24;1.02;;;1.02;;
15194;SDS011;7698;42.478;23.756;2023-08-07T01:05:50;1.30;;;1.20;;
15194;SDS011;7698;42.478;23.756;2023-08-07T01:08:18;1.25;;;1.25;;
15194;SDS011;7698;42.478;23.756;2023-08-07T01:10:49;1.52;;;1.40;;
15194;SDS011;7698;42.478;23.756;2023-08-07T01:13:18;1.38;;;1.27;;
15194;SDS011;7698;42.478;23.756;2023-08-07T01:15:50;1.67;;;1.40;;
15194;SDS011;7698;42.478;23.756;2023-08-07T01:18:18;1.35;;;1.27;;
15194;SDS011;7698;42.478;23.756;2023-08-07T01:20:45;1.45;;;1.35;;
15194;SDS011;7698;42.478;23.756;2023-08-07T01:23:13;1.40;;;1.30;;
15194;SDS011;7698;42.478;23.756;2023-08-07T01:25:39;1.63;;;1.52;;
15194;SDS011;7698;42.478;23.756;2023-08-07T01:28:08;1.60;;;1.50;;
15194;SDS011;7698;42.478;23.756;2023-08-07T01:30:40;1.25;;;1.25;;
15194;SDS011;7698;42.478;23.756;2023-08-07T01:33:09;1.75;;;1.65;;
15194;SDS011;7698;42.478;23.756;2023-08-07T01:35:39;1.77;;;1.67;;
15194;SDS011;7698;42.478;23.756;2023-08-07T01:38:06;1.33;;;1.33;;
15194;SDS011;7698;42.478;23.756;2023-08-07T01:40:35;2.00;;;1.77;;
15194;SDS011;7698;42.478;23.756;2023-08-07T01:43:02;1.65;;;1.55;;
15194;SDS011;7698;42.478;23.756;2023-08-07T01:45:29;1.65;;;1.55;;
15194;SDS011;7698;42.478;23.756;2023-08-07T01:47:55;1.65;;;1.55;;
15194;SDS011;7698;42.478;23.756;2023-08-07T01:50:22;1.83;;;1.73;;
15194;SDS011;7698;42.478;23.756;2023-08-07T01:52:49;1.90;;;1.80;;
15194;SDS011;7698;42.478;23.756;2023-08-07T01:55:16;1.80;;;1.70;;
15194;SDS011;7698;42.478;23.756;2023-08-07T01:57:45;2.25;;;1.60;;
15194;SDS011;7698;42.478;23.756;2023-08-07T02:00:11;2.75;;;1.70;;
15194;SDS011;7698;42.478;23.756;2023-08-07T02:02:38;2.17;;;2.00;;
15194;SDS011;7698;42.478;23.756;2023-08-07T02:05:05;1.70;;;1.60;;
15194;SDS011;7698;42.478;23.756;2023-08-07T02:07:32;2.03;;;1.92;;
15194;SDS011;7698;42.478;23.756;2023-08-07T02:09:58;2.63;;;2.42;;
15194;SDS011;7698;42.478;23.756;2023-08-07T02:12:25;1.77;;;1.67;;
15194;SDS011;7698;42.478;23.756;2023-08-07T02:14:54;1.90;;;1.80;;
15194;SDS011;7698;42.478;23.756;2023-08-07T02:17:20;1.98;;;1.88;;
15194;SDS011;7698;42.478;23.756;2023-08-07T02:19:47;1.95;;;1.85;;
15194;SDS011;7698;42.478;23.756;2023-08-07T02:22:14;2.00;;;1.90;;
15194;SDS011;7698;42.478;23.756;2023-08-07T02:24:41;2.03;;;1.92;;
15194;SDS011;7698;42.478;23.756;2023-08-07T02:27:07;2.45;;;1.98;;
15194;SDS011;7698;42.478;23.756;2023-08-07T02:29:34;2.15;;;1.95;;
15194;SDS011;7698;42.478;23.756;2023-08-07T02:32:02;1.80;;;1.70;;
15194;SDS011;7698;42.478;23.756;2023-08-07T02:34:29;1.90;;;1.80;;
15194;SDS011;7698;42.478;23.756;2023-08-07T02:36:56;2.00;;;1.60;;
15194;SDS011;7698;42.478;23.756;2023-08-07T02:39:23;1.92;;;1.83;;
15194;SDS011;7698;42.478;23.756;2023-08-07T02:41:50;2.10;;;2.00;;
15194;SDS011;7698;42.478;23.756;2023-08-07T02:44:16;2.03;;;1.92;;
15194;SDS011;7698;42.478;23.756;2023-08-07T02:46:43;2.03;;;1.90;;
15194;SDS011;7698;42.478;23.756;2023-08-07T02:49:11;2.38;;;2.28;;
15194;SDS011;7698;42.478;23.756;2023-08-07T02:51:38;2.05;;;1.95;;
15194;SDS011;7698;42.478;23.756;2023-08-07T02:54:05;2.17;;;2.08;;
15194;SDS011;7698;42.478;23.756;2023-08-07T02:56:31;2.00;;;1.90;;
15194;SDS011;7698;42.478;23.756;2023-08-07T02:59:00;2.90;;;2.60;;
15194;SDS011;7698;42.478;23.756;2023-08-07T03:01:27;2.50;;;2.40;;
15194;SDS011;7698;42.478;23.756;2023-08-07T03:03:54;2.83;;;2.63;;
15194;SDS011;7698;42.478;23.756;2023-08-07T03:06:22;2.85;;;2.65;;
15194;SDS011;7698;42.478;23.756;2023-08-07T03:08:49;2.47;;;2.38;;
15194;SDS011;7698;42.478;23.756;2023-08-07T03:11:15;2.53;;;2.40;;
15194;SDS011;7698;42.478;23.756;2023-08-07T03:13:42;2.58;;;2.45;;
15194;SDS011;7698;42.478;23.756;2023-08-07T03:16:09;3.13;;;2.92;;
15194;SDS011;7698;42.478;23.756;2023-08-07T03:18:36;3.22;;;3.03;;
15194;SDS011;7698;42.478;23.756;2023-08-07T03:21:02;3.28;;;3.08;;
15194;SDS011;7698;42.478;23.756;2023-08-07T03:23:31;3.20;;;3.00;;
15194;SDS011;7698;42.478;23.756;2023-08-07T03:26:03;3.50;;;3.30;;
15194;SDS011;7698;42.478;23.756;2023-08-07T03:28:30;3.25;;;3.05;;
15194;SDS011;7698;42.478;23.756;2023-08-07T03:30:57;2.95;;;2.80;;
15194;SDS011;7698;42.478;23.756;2023-08-07T03:33:24;3.85;;;3.58;;
15194;SDS011;7698;42.478;23.756;2023-08-07T03:35:51;3.30;;;3.10;;
15194;SDS011;7698;42.478;23.756;2023-08-07T03:38:17;3.60;;;3.40;;
15194;SDS011;7698;42.478;23.756;2023-08-07T03:40:46;3.03;;;2.83;;
15194;SDS011;7698;42.478;23.756;2023-08-07T03:43:12;3.83;;;3.63;;
15194;SDS011;7698;42.478;23.756;2023-08-07T03:45:39;3.85;;;3.50;;
15194;SDS011;7698;42.478;23.756;2023-08-07T03:48:06;4.20;;;3.90;;
15194;SDS011;7698;42.478;23.756;2023-08-07T03:50:32;3.38;;;3.17;;
15194;SDS011;7698;42.478;23.756;2023-08-07T03:53:02;3.05;;;2.85;;
15194;SDS011;7698;42.478;23.756;2023-08-07T03:55:29;4.00;;;3.80;;
15194;SDS011;7698;42.478;23.756;2023-08-07T03:57:57;3.53;;;3.33;;
15194;SDS011;7698;42.478;23.756;2023-08-07T04:00:24;4.43;;;4.13;;
15194;SDS011;7698;42.478;23.756;2023-08-07T04:02:51;4.00;;;3.60;;
15194;SDS011;7698;42.478;23.756;2023-08-07T04:05:17;3.35;;;3.15;;
15194;SDS011;7698;42.478;23.756;2023-08-07T04:07:44;3.28;;;3.08;;
15194;SDS011;7698;42.478;23.756;2023-08-07T04:10:12;3.70;;;3.50;;
15194;SDS011;7698;42.478;23.756;2023-08-07T04:12:38;3.60;;;3.40;;
15194;SDS011;7698;42.478;23.756;2023-08-07T04:15:07;4.32;;;4.03;;
15194;SDS011;7698;42.478;23.756;2023-08-07T04:17:35;4.10;;;3.80;;
15194;SDS011;7698;42.478;23.756;2023-08-07T04:20:02;3.28;;;3.08;;
15194;SDS011;7698;42.478;23.756;2023-08-07T04:22:30;3.40;;;3.20;;
15194;SDS011;7698;42.478;23.756;2023-08-07T04:24:57;3.65;;;3.45;;
15194;SDS011;7698;42.478;23.756;2023-08-07T04:27:25;3.95;;;3.65;;
15194;SDS011;7698;42.478;23.756;2023-08-07T04:29:51;3.55;;;3.35;;
15194;SDS011;7698;42.478;23.756;2023-08-07T04:32:19;4.18;;;3.78;;
15194;SDS011;7698;42.478;23.756;2023-08-07T04:34:46;3.55;;;3.35;;
15194;SDS011;7698;42.478;23.756;2023-08-07T04:37:13;3.15;;;2.95;;
15194;SDS011;7698;42.478;23.756;2023-08-07T04:39:40;2.95;;;2.83;;
15194;SDS011;7698;42.478;23.756;2023-08-07T04:42:06;2.78;;;2.58;;
15194;SDS011;7698;42.478;23.756;2023-08-07T04:44:33;2.53;;;2.42;;
15194;SDS011;7698;42.478;23.756;2023-08-07T04:47:00;3.20;;;3.00;;
15194;SDS011;7698;42.478;23.756;2023-08-07T04:49:28;2.50;;;2.40;;
15194;SDS011;7698;42.478;23.756;2023-08-07T04:51:55;2.42;;;2.25;;
15194;SDS011;7698;42.478;23.756;2023-08-07T04:54:21;2.00;;;1.90;;
15194;SDS011;7698;42.478;23.756;2023-08-07T04:56:48;2.42;;;2.10;;
15194;SDS011;7698;42.478;23.756;2023-08-07T04:59:14;3.00;;;1.90;;
15194;SDS011;7698;42.478;23.756;2023-08-07T05:01:41;2.17;;;2.08;;
15194;SDS011;7698;42.478;23.756;2023-08-07T05:04:08;1.70;;;1.60;;
15194;SDS011;7698;42.478;23.756;2023-08-07T05:06:36;1.88;;;1.77;;
15194;SDS011;7698;42.478;23.756;2023-08-07T05:09:03;2.10;;;2.00;;
15194;SDS011;7698;42.478;23.756;2023-08-07T05:11:30;1.80;;;1.70;;
15194;SDS011;7698;42.478;23.756;2023-08-07T05:13:57;1.67;;;1.58;;
15194;SDS011;7698;42.478;23.756;2023-08-07T05:16:24;1.70;;;1.60;;
15194;SDS011;7698;42.478;23.756;2023-08-07T05:18:51;1.30;;;1.30;;
15194;SDS011;7698;42.478;23.756;2023-08-07T05:21:18;1.20;;;1.20;;
15194;SDS011;7698;42.478;23.756;2023-08-07T05:23:47;1.58;;;1.50;;
15194;SDS011;7698;42.478;23.756;2023-08-07T05:26:18;1.50;;;1.40;;
15194;SDS011;7698;42.478;23.756;2023-08-07T05:28:46;2.08;;;1.98;;
15194;SDS011;7698;42.478;23.756;2023-08-07T05:31:13;1.38;;;1.38;;
15194;SDS011;7698;42.478;23.756;2023-08-07T05:33:40;1.60;;;1.50;;
15194;SDS011;7698;42.478;23.756;2023-08-07T05:36:06;1.55;;;1.30;;
15194;SDS011;7698;42.478;23.756;2023-08-07T05:38:33;1.23;;;1.20;;
15194;SDS011;7698;42.478;23.756;2023-08-07T05:41:02;1.60;;;1.50;;
15194;SDS011;7698;42.478;23.756;2023-08-07T05:43:28;1.20;;;1.10;;
15194;SDS011;7698;42.478;23.756;2023-08-07T05:45:55;2.15;;;1.42;;
15194;SDS011;7698;42.478;23.756;2023-08-07T05:48:22;1.38;;;1.20;;
15194;SDS011;7698;42.478;23.756;2023-08-07T05:50:50;1.13;;;1.13;;
15194;SDS011;7698;42.478;23.756;2023-08-07T05:53:18;1.38;;;1.27;;
15194;SDS011;7698;42.478;23.756;2023-08-07T05:55:44;1.45;;;1.02;;
15194;SDS011;7698;42.478;23.756;2023-08-07T05:58:12;1.10;;;1.10;;
15194;SDS011;7698;42.478;23.756;2023-08-07T06:00:39;1.20;;;1.20;;
15194;SDS011;7698;42.478;23.756;2023-08-07T06:03:06;1.23;;;1.23;;
15194;SDS011;7698;42.478;23.756;2023-08-07T06:05:33;1.20;;;0.90;;
15194;SDS011;7698;42.478;23.756;2023-08-07T06:08:00;0.88;;;0.88;;
15194;SDS011;7698;42.478;23.756;2023-08-07T06:10:27;1.00;;;1.00;;
15194;SDS011;7698;42.478;23.756;2023-08-07T06:12:53;0.93;;;0.93;;
15194;SDS011;7698;42.478;23.756;2023-08-07T06:15:22;0.85;;;0.85;;
15194;SDS011;7698;42.478;23.756;2023-08-07T06:17:48;1.23;;;1.13;;
15194;SDS011;7698;42.478;23.756;2023-08-07T06:20:16;0.85;;;0.85;;
15194;SDS011;7698;42.478;23.756;2023-08-07T06:22:43;1.00;;;1.00;;
15194;SDS011;7698;42.478;23.756;2023-08-07T06:25:10;1.10;;;1.00;;
15194;SDS011;7698;42.478;23.756;2023-08-07T06:27:36;0.82;;;0.82;;
15194;SDS011;7698;42.478;23.756;2023-08-07T06:30:04;0.70;;;0.70;;
15194;SDS011;7698;42.478;23.756;2023-08-07T06:32:33;0.60;;;0.60;;
15194;SDS011;7698;42.478;23.756;2023-08-07T06:35:02;0.85;;;0.85;;
15194;SDS011;7698;42.478;23.756;2023-08-07T06:37:30;1.77;;;0.80;;
15194;SDS011;7698;42.478;23.756;2023-08-07T06:39:57;0.77;;;0.77;;
15194;SDS011;7698;42.478;23.756;2023-08-07T06:42:24;0.60;;;0.60;;
15194;SDS011;7698;42.478;23.756;2023-08-07T06:44:52;0.70;;;0.70;;
15194;SDS011;7698;42.478;23.756;2023-08-07T06:47:18;1.25;;;0.90;;
15194;SDS011;7698;42.478;23.756;2023-08-07T06:49:47;0.60;;;0.60;;
15194;SDS011;7698;42.478;23.756;2023-08-07T06:52:14;0.70;;;0.70;;
15194;SDS011;7698;42.478;23.756;2023-08-07T06:54:41;0.70;;;0.70;;
15194;SDS011;7698;42.478;23.756;2023-08-07T06:57:08;0.50;;;0.50;;
15194;SDS011;7698;42.478;23.756;2023-08-07T06:59:36;0.60;;;0.60;;
15194;SDS011;7698;42.478;23.756;2023-08-07T07:02:03;0.65;;;0.65;;
15194;SDS011;7698;42.478;23.756;2023-08-07T07:04:31;0.40;;;0.40;;
15194;SDS011;7698;42.478;23.756;2023-08-07T07:06:59;0.50;;;0.45;;
15194;SDS011;7698;42.478;23.756;2023-08-07T07:09:26;0.52;;;0.52;;
15194;SDS011;7698;42.478;23.756;2023-08-07T07:11:53;0.68;;;0.50;;
15194;SDS011;7698;42.478;23.756;2023-08-07T07:14:20;1.30;;;0.60;;
15194;SDS011;7698;42.478;23.756;2023-08-07T07:16:48;0.50;;;0.50;;
15194;SDS011;7698;42.478;23.756;2023-08-07T07:19:15;0.40;;;0.40;;
15194;SDS011;7698;42.478;23.756;2023-08-07T07:21:42;0.60;;;0.50;;
15194;SDS011;7698;42.478;23.756;2023-08-07T07:24:10;0.60;;;0.60;;
15194;SDS011;7698;42.478;23.756;2023-08-07T07:26:36;0.70;;;0.70;;
15194;SDS011;7698;42.478;23.756;2023-08-07T07:29:03;0.70;;;0.60;;
15194;SDS011;7698;42.478;23.756;2023-08-07T07:31:31;0.50;;;0.50;;
15194;SDS011;7698;42.478;23.756;2023-08-07T07:33:58;0.47;;;0.40;;
15194;SDS011;7698;42.478;23.756;2023-08-07T07:36:25;0.38;;;0.38;;
15194;SDS011;7698;42.478;23.756;2023-08-07T07:38:52;0.50;;;0.50;;
15194;SDS011;7698;42.478;23.756;2023-08-07T07:41:21;0.30;;;0.30;;
15194;SDS011;7698;42.478;23.756;2023-08-07T07:43:48;0.70;;;0.70;;
15194;SDS011;7698;42.478;23.756;2023-08-07T07:46:15;0.70;;;0.60;;
15194;SDS011;7698;42.478;23.756;2023-08-07T07:48:41;1.38;;;0.50;;
15194;SDS011;7698;42.478;23.756;2023-08-07T07:51:09;0.95;;;0.60;;
15194;SDS011;7698;42.478;23.756;2023-08-07T07:53:36;0.60;;;0.60;;
15194;SDS011;7698;42.478;23.756;2023-08-07T07:56:03;0.63;;;0.63;;
15194;SDS011;7698;42.478;23.756;2023-08-07T07:58:31;1.15;;;0.70;;
15194;SDS011;7698;42.478;23.756;2023-08-07T08:00:58;0.50;;;0.50;;
15194;SDS011;7698;42.478;23.756;2023-08-07T08:03:25;1.00;;;0.70;;
15194;SDS011;7698;42.478;23.756;2023-08-07T08:05:52;0.70;;;0.70;;
15194;SDS011;7698;42.478;23.756;2023-08-07T08:08:20;0.60;;;0.60;;
15194;SDS011;7698;42.478;23.756;2023-08-07T08:10:48;0.63;;;0.63;;
15194;SDS011;7698;42.478;23.756;2023-08-07T08:13:16;0.90;;;0.90;;
15194;SDS011;7698;42.478;23.756;2023-08-07T08:15:45;0.80;;;0.80;;
15194;SDS011;7698;42.478;23.756;2023-08-07T08:18:12;0.57;;;0.57;;
15194;SDS011;7698;42.478;23.756;2023-08-07T08:20:39;0.70;;;0.70;;
15194;SDS011;7698;42.478;23.756;2023-08-07T08:23:06;0.70;;;0.70;;
15194;SDS011;7698;42.478;23.756;2023-08-07T08:25:34;1.25;;;0.90;;
15194;SDS011;7698;42.478;23.756;2023-08-07T08:28:02;0.60;;;0.60;;
15194;SDS011;7698;42.478;23.756;2023-08-07T08:30:30;0.60;;;0.60;;
15194;SDS011;7698;42.478;23.756;2023-08-07T08:32:58;0.50;;;0.50;;
15194;SDS011;7698;42.478;23.756;2023-08-07T08:35:25;0.55;;;0.55;;
15194;SDS011;7698;42.478;23.756;2023-08-07T08:37:52;0.77;;;0.40;;
15194;SDS011;7698;42.478;23.756;2023-08-07T08:40:19;0.80;;;0.73;;
15194;SDS011;7698;42.478;23.756;2023-08-07T08:42:47;0.70;;;0.70;;
15194;SDS011;7698;42.478;23.756;2023-08-07T08:45:14;0.80;;;0.80;;
15194;SDS011;7698;42.478;23.756;2023-08-07T08:47:42;0.60;;;0.60;;
15194;SDS011;7698;42.478;23.756;2023-08-07T08:50:12;0.95;;;0.95;;
15194;SDS011;7698;42.478;23.756;2023-08-07T08:52:41;1.55;;;1.45;;
15194;SDS011;7698;42.478;23.756;2023-08-07T08:55:08;13.38;;;12.38;;
15194;SDS011;7698;42.478;23.756;2023-08-07T08:57:36;4.70;;;4.40;;
15194;SDS011;7698;42.478;23.756;2023-08-07T09:00:04;3.00;;;2.80;;
15194;SDS011;7698;42.478;23.756;2023-08-07T09:02:38;3.50;;;2.22;;
15194;SDS011;7698;42.478;23.756;2023-08-07T09:05:05;1.55;;;1.45;;
15194;SDS011;7698;42.478;23.756;2023-08-07T09:07:33;1.48;;;1.30;;
15194;SDS011;7698;42.478;23.756;2023-08-07T09:10:01;1.10;;;1.10;;
15194;SDS011;7698;42.478;23.756;2023-08-07T09:12:29;1.23;;;1.15;;
15194;SDS011;7698;42.478;23.756;2023-08-07T09:14:56;1.38;;;0.95;;
15194;SDS011;7698;42.478;23.756;2023-08-07T09:17:24;0.90;;;0.90;;
15194;SDS011;7698;42.478;23.756;2023-08-07T09:19:53;0.85;;;0.73;;
15194;SDS011;7698;42.478;23.756;2023-08-07T09:22:19;0.70;;;0.70;;
15194;SDS011;7698;42.478;23.756;2023-08-07T09:24:48;0.70;;;0.70;;
15194;SDS011;7698;42.478;23.756;2023-08-07T09:27:14;0.75;;;0.70;;
15194;SDS011;7698;42.478;23.756;2023-08-07T09:29:41;2.90;;;0.82;;
15194;SDS011;7698;42.478;23.756;2023-08-07T09:32:11;1.67;;;0.93;;
15194;SDS011;7698;42.478;23.756;2023-08-07T09:34:38;0.85;;;0.80;;
15194;SDS011;7698;42.478;23.756;2023-08-07T09:37:06;1.35;;;0.70;;
15194;SDS011;7698;42.478;23.756;2023-08-07T09:39:33;0.80;;;0.80;;
15194;SDS011;7698;42.478;23.756;2023-08-07T09:42:02;0.65;;;0.65;;
15194;SDS011;7698;42.478;23.756;2023-08-07T09:44:34;0.73;;;0.73;;
15194;SDS011;7698;42.478;23.756;2023-08-07T09:47:01;0.55;;;0.55;;
15194;SDS011;7698;42.478;23.756;2023-08-07T09:49:37;0.70;;;0.70;;
15194;SDS011;7698;42.478;23.756;2023-08-07T09:52:05;0.70;;;0.70;;
15194;SDS011;7698;42.478;23.756;2023-08-07T09:54:33;0.80;;;0.80;;
15194;SDS011;7698;42.478;23.756;2023-08-07T09:57:02;0.70;;;0.70;;
15194;SDS011;7698;42.478;23.756;2023-08-07T09:59:30;0.82;;;0.70;;
15194;SDS011;7698;42.478;23.756;2023-08-07T10:01:58;0.63;;;0.63;;
15194;SDS011;7698;42.478;23.756;2023-08-07T10:04:26;0.50;;;0.50;;
15194;SDS011;7698;42.478;23.756;2023-08-07T10:06:53;0.68;;;0.68;;
15194;SDS011;7698;42.478;23.756;2023-08-07T10:09:19;1.73;;;0.70;;
15194;SDS011;7698;42.478;23.756;2023-08-07T10:11:46;0.60;;;0.60;;
15194;SDS011;7698;42.478;23.756;2023-08-07T10:14:15;1.30;;;0.60;;
15194;SDS011;7698;42.478;23.756;2023-08-07T10:16:41;3.00;;;2.80;;
15194;SDS011;7698;42.478;23.756;2023-08-07T10:19:09;5.78;;;5.28;;
15194;SDS011;7698;42.478;23.756;2023-08-07T10:21:38;3.03;;;1.60;;
15194;SDS011;7698;42.478;23.756;2023-08-07T10:24:05;1.40;;;1.30;;
15194;SDS011;7698;42.478;23.756;2023-08-07T10:26:32;1.50;;;0.90;;
15194;SDS011;7698;42.478;23.756;2023-08-07T10:28:59;1.02;;;1.02;;
15194;SDS011;7698;42.478;23.756;2023-08-07T10:31:28;1.40;;;1.30;;
15194;SDS011;7698;42.478;23.756;2023-08-07T10:33:55;0.80;;;0.80;;
15194;SDS011;7698;42.478;23.756;2023-08-07T10:36:22;0.90;;;0.90;;
15194;SDS011;7698;42.478;23.756;2023-08-07T10:38:49;1.58;;;0.85;;
15194;SDS011;7698;42.478;23.756;2023-08-07T10:41:17;0.70;;;0.70;;
15194;SDS011;7698;42.478;23.756;2023-08-07T10:43:44;0.82;;;0.82;;
15194;SDS011;7698;42.478;23.756;2023-08-07T10:46:13;0.63;;;0.63;;
15194;SDS011;7698;42.478;23.756;2023-08-07T10:48:41;0.80;;;0.60;;
15194;SDS011;7698;42.478;23.756;2023-08-07T10:51:08;1.10;;;1.00;;
15194;SDS011;7698;42.478;23.756;2023-08-07T10:53:35;0.90;;;0.90;;
15194;SDS011;7698;42.478;23.756;2023-08-07T10:56:02;1.27;;;0.90;;
15194;SDS011;7698;42.478;23.756;2023-08-07T10:58:30;0.80;;;0.70;;
15194;SDS011;7698;42.478;23.756;2023-08-07T11:01:15;0.80;;;0.80;;
15194;SDS011;7698;42.478;23.756;2023-08-07T11:03:44;1.23;;;0.80;;
15194;SDS011;7698;42.478;23.756;2023-08-07T11:06:10;0.68;;;0.68;;
15194;SDS011;7698;42.478;23.756;2023-08-07T11:08:37;0.70;;;0.70;;
15194;SDS011;7698;42.478;23.756;2023-08-07T11:11:04;0.68;;;0.68;;
15194;SDS011;7698;42.478;23.756;2023-08-07T11:13:31;1.08;;;1.08;;
15194;SDS011;7698;42.478;23.756;2023-08-07T11:15:57;4.28;;;3.92;;
15194;SDS011;7698;42.478;23.756;2023-08-07T11:18:26;2.70;;;2.50;;
15194;SDS011;7698;42.478;23.756;2023-08-07T11:20:54;3.50;;;3.20;;
15194;SDS011;7698;42.478;23.756;2023-08-07T11:23:22;3.95;;;3.65;;
15194;SDS011;7698;42.478;23.756;2023-08-07T11:25:49;1.90;;;1.80;;
15194;SDS011;7698;42.478;23.756;2023-08-07T11:28:17;1.38;;;1.27;;
15194;SDS011;7698;42.478;23.756;2023-08-07T11:30:44;1.38;;;1.25;;
15194;SDS011;7698;42.478;23.756;2023-08-07T11:33:11;1.50;;;1.20;;
15194;SDS011;7698;42.478;23.756;2023-08-07T11:35:40;1.40;;;1.25;;
15194;SDS011;7698;42.478;23.756;2023-08-07T11:38:08;0.75;;;0.75;;
15194;SDS011;7698;42.478;23.756;2023-08-07T11:40:35;1.27;;;1.02;;
15194;SDS011;7698;42.478;23.756;2023-08-07T11:43:02;0.77;;;0.77;;
15194;SDS011;7698;42.478;23.756;2023-08-07T11:45:29;1.02;;;1.00;;
15194;SDS011;7698;42.478;23.756;2023-08-07T11:47:56;5.10;;;0.82;;
15194;SDS011;7698;42.478;23.756;2023-08-07T11:50:24;0.90;;;0.90;;
15194;SDS011;7698;42.478;23.756;2023-08-07T11:52:51;0.70;;;0.70;;
15194;SDS011;7698;42.478;23.756;2023-08-07T11:55:19;0.90;;;0.90;;
15194;SDS011;7698;42.478;23.756;2023-08-07T11:58:05;3.22;;;0.82;;
15194;SDS011;7698;42.478;23.756;2023-08-07T12:01:15;0.77;;;0.77;;
15194;SDS011;7698;42.478;23.756;2023-08-07T12:03:42;1.73;;;0.80;;
15194;SDS011;7698;42.478;23.756;2023-08-07T12:06:09;0.90;;;0.90;;
15194;SDS011;7698;42.478;23.756;2023-08-07T12:08:37;1.60;;;1.40;;
15194;SDS011;7698;42.478;23.756;2023-08-07T12:11:08;2.53;;;2.33;;
15194;SDS011;7698;42.478;23.756;2023-08-07T12:13:37;2.15;;;2.05;;
15194;SDS011;7698;42.478;23.756;2023-08-07T12:16:05;1.33;;;1.23;;
15194;SDS011;7698;42.478;23.756;2023-08-07T12:18:32;1.70;;;1.60;;
15194;SDS011;7698;42.478;23.756;2023-08-07T12:20:59;1.65;;;1.55;;
15194;SDS011;7698;42.478;23.756;2023-08-07T12:23:27;1.73;;;1.63;;
15194;SDS011;7698;42.478;23.756;2023-08-07T12:25:54;1.38;;;1.27;;
15194;SDS011;7698;42.478;23.756;2023-08-07T12:28:23;1.48;;;1.38;;
15194;SDS011;7698;42.478;23.756;2023-08-07T12:30:50;0.95;;;0.88;;
15194;SDS011;7698;42.478;23.756;2023-08-07T12:33:17;1.00;;;1.00;;
15194;SDS011;7698;42.478;23.756;2023-08-07T12:35:45;4.60;;;1.33;;
15194;SDS011;7698;42.478;23.756;2023-08-07T12:38:12;1.20;;;1.10;;
15194;SDS011;7698;42.478;23.756;2023-08-07T12:40:40;1.02;;;0.85;;
15194;SDS011;7698;42.478;23.756;2023-08-07T12:43:07;2.05;;;0.95;;
15194;SDS011;7698;42.478;23.756;2023-08-07T12:45:36;0.98;;;0.88;;
15194;SDS011;7698;42.478;23.756;2023-08-07T12:48:03;0.85;;;0.73;;
15194;SDS011;7698;42.478;23.756;2023-08-07T12:50:31;1.40;;;1.00;;
15194;SDS011;7698;42.478;23.756;2023-08-07T12:52:58;7.30;;;6.80;;
15194;SDS011;7698;42.478;23.756;2023-08-07T12:55:25;3.70;;;3.40;;
15194;SDS011;7698;42.478;23.756;2023-08-07T12:57:53;1.70;;;1.60;;
15194;SDS011;7698;42.478;23.756;2023-08-07T13:00:21;2.22;;;1.85;;
15194;SDS011;7698;42.478;23.756;2023-08-07T13:02:49;1.85;;;1.73;;
15194;SDS011;7698;42.478;23.756;2023-08-07T13:05:17;1.58;;;1.48;;
15194;SDS011;7698;42.478;23.756;2023-08-07T13:07:45;2.00;;;1.50;;
15194;SDS011;7698;42.478;23.756;2023-08-07T13:10:13;2.00;;;1.40;;
15194;SDS011;7698;42.478;23.756;2023-08-07T13:12:41;1.00;;;1.00;;
15194;SDS011;7698;42.478;23.756;2023-08-07T13:15:08;1.38;;;1.27;;
15194;SDS011;7698;42.478;23.756;2023-08-07T13:17:35;1.45;;;1.35;;
15194;SDS011;7698;42.478;23.756;2023-08-07T13:20:04;0.95;;;0.95;;
15194;SDS011;7698;42.478;23.756;2023-08-07T13:22:33;0.90;;;0.90;;
15194;SDS011;7698;42.478;23.756;2023-08-07T13:24:59;1.00;;;1.00;;
15194;SDS011;7698;42.478;23.756;2023-08-07T13:27:28;1.02;;;1.00;;
15194;SDS011;7698;42.478;23.756;2023-08-07T13:29:55;1.02;;;0.80;;
15194;SDS011;7698;42.478;23.756;2023-08-07T13:32:22;0.80;;;0.80;;
15194;SDS011;7698;42.478;23.756;2023-08-07T13:34:49;0.88;;;0.88;;
15194;SDS011;7698;42.478;23.756;2023-08-07T13:37:19;1.10;;;0.90;;
15194;SDS011;7698;42.478;23.756;2023-08-07T13:39:46;0.80;;;0.80;;
15194;SDS011;7698;42.478;23.756;2023-08-07T13:42:17;1.35;;;1.10;;
15194;SDS011;7698;42.478;23.756;2023-08-07T13:44:44;0.80;;;0.80;;
15194;SDS011;7698;42.478;23.756;2023-08-07T13:47:11;1.20;;;1.05;;
15194;SDS011;7698;42.478;23.756;2023-08-07T13:49:39;2.00;;;1.10;;
15194;SDS011;7698;42.478;23.756;2023-08-07T13:52:06;0.70;;;0.68;;
15194;SDS011;7698;42.478;23.756;2023-08-07T13:54:34;2.15;;;1.98;;
15194;SDS011;7698;42.478;23.756;2023-08-07T13:57:01;3.17;;;2.85;;
15194;SDS011;7698;42.478;23.756;2023-08-07T13:59:28;1.17;;;1.00;;
15194;SDS011;7698;42.478;23.756;2023-08-07T14:01:54;1.23;;;1.10;;
15194;SDS011;7698;42.478;23.756;2023-08-07T14:04:22;2.53;;;1.63;;
15194;SDS011;7698;42.478;23.756;2023-08-07T14:06:49;1.15;;;1.05;;
15194;SDS011;7698;42.478;23.756;2023-08-07T14:09:15;1.25;;;1.02;;
15194;SDS011;7698;42.478;23.756;2023-08-07T14:11:45;1.30;;;1.20;;
15194;SDS011;7698;42.478;23.756;2023-08-07T14:14:12;3.95;;;3.65;;
15194;SDS011;7698;42.478;23.756;2023-08-07T14:16:39;5.10;;;4.72;;
15194;SDS011;7698;42.478;23.756;2023-08-07T14:19:06;4.50;;;4.20;;
15194;SDS011;7698;42.478;23.756;2023-08-07T14:21:33;1.80;;;1.70;;
15194;SDS011;7698;42.478;23.756;2023-08-07T14:24:00;2.03;;;1.92;;
15194;SDS011;7698;42.478;23.756;2023-08-07T14:26:27;3.35;;;3.05;;
15194;SDS011;7698;42.478;23.756;2023-08-07T14:28:56;2.33;;;2.13;;
15194;SDS011;7698;42.478;23.756;2023-08-07T14:31:23;2.80;;;2.60;;
15194;SDS011;7698;42.478;23.756;2023-08-07T14:33:50;2.30;;;1.48;;
15194;SDS011;7698;42.478;23.756;2023-08-07T14:36:17;1.30;;;1.20;;
15194;SDS011;7698;42.478;23.756;2023-08-07T14:38:45;1.60;;;1.50;;
15194;SDS011;7698;42.478;23.756;2023-08-07T14:41:12;1.30;;;1.13;;
15194;SDS011;7698;42.478;23.756;2023-08-07T14:43:39;1.40;;;1.30;;
15194;SDS011;7698;42.478;23.756;2023-08-07T14:46:07;1.95;;;1.60;;
15194;SDS011;7698;42.478;23.756;2023-08-07T14:48:34;2.05;;;1.20;;
15194;SDS011;7698;42.478;23.756;2023-08-07T14:51:01;1.33;;;1.10;;